Chauvin, Canada
Current Conditions -  °F | °C
As of 5:00 PM on Friday 28 Nov 2014 (Local Time) from CYLL Reporting Station
Light Snow Light Snow  
Wind Chill: -21°   Ceiling: 5500
Heat Index: -4°   Visibility: 8mi
Dew Point: -9°   Wind: 10mph
Humidity: 78%   Direction: 360°N
Pressure: 29.7"   Gusts: NA
Location:  52.68°N, 110.13°W
Report Text: CYLL 290000Z 36009KT 8SM -SN BKN055 OVC120 M20/M23 A2970 RMK SC6AC2 SLP122
Loading
Personal Weather Stations






























Interactive Weather Map New forecast layout! Learn more

10-Day Weather Forecast

Advertisements
Track Severe Weather on mobile